sensor_id;sensor_type;location;lat;lon;timestamp;pressure;altitude;pressure_sealevel;temperature;humidity
39197;BME280;42889;51.112;13.772;2022-12-26T00:01:11;98763.06;;;9.76;nan
39197;BME280;42889;51.112;13.772;2022-12-26T00:03:38;98763.19;;;9.66;nan
39197;BME280;42889;51.112;13.772;2022-12-26T00:06:11;98740.72;;;9.67;nan
39197;BME280;42889;51.112;13.772;2022-12-26T00:08:38;98737.69;;;9.70;nan
39197;BME280;42889;51.112;13.772;2022-12-26T00:11:05;98748.97;;;9.82;nan
39197;BME280;42889;51.112;13.772;2022-12-26T00:13:32;98759.56;;;9.84;nan
39197;BME280;42889;51.112;13.772;2022-12-26T00:16:11;98749.00;;;9.98;nan
39197;BME280;42889;51.112;13.772;2022-12-26T00:18:39;98744.81;;;10.04;nan
39197;BME280;42889;51.112;13.772;2022-12-26T00:21:07;98747.84;;;10.09;nan
39197;BME280;42889;51.112;13.772;2022-12-26T00:23:34;98755.75;;;10.11;nan
39197;BME280;42889;51.112;13.772;2022-12-26T00:28:29;98758.13;;;10.14;nan
39197;BME280;42889;51.112;13.772;2022-12-26T00:30:56;98768.75;;;10.23;nan
39197;BME280;42889;51.112;13.772;2022-12-26T00:33:23;98764.84;;;10.18;nan
39197;BME280;42889;51.112;13.772;2022-12-26T00:35:51;98764.03;;;10.25;nan
39197;BME280;42889;51.112;13.772;2022-12-26T00:38:17;98752.75;;;10.14;nan
39197;BME280;42889;51.112;13.772;2022-12-26T00:40:44;98764.84;;;10.18;nan
39197;BME280;42889;51.112;13.772;2022-12-26T00:43:11;98753.94;;;10.19;nan
39197;BME280;42889;51.112;13.772;2022-12-26T00:45:37;98747.19;;;10.15;nan
39197;BME280;42889;51.112;13.772;2022-12-26T00:48:04;98765.66;;;10.10;nan
39197;BME280;42889;51.112;13.772;2022-12-26T00:50:31;98759.97;;;10.13;nan
39197;BME280;42889;51.112;13.772;2022-12-26T00:53:00;98751.25;;;10.11;nan
39197;BME280;42889;51.112;13.772;2022-12-26T00:55:27;98740.47;;;10.19;nan
39197;BME280;42889;51.112;13.772;2022-12-26T00:57:54;98748.09;;;10.24;nan
39197;BME280;42889;51.112;13.772;2022-12-26T01:00:22;98738.16;;;10.24;nan
39197;BME280;42889;51.112;13.772;2022-12-26T01:02:49;98724.53;;;10.18;nan
39197;BME280;42889;51.112;13.772;2022-12-26T01:05:16;98726.03;;;10.12;nan
39197;BME280;42889;51.112;13.772;2022-12-26T01:07:43;98729.41;;;10.22;nan
39197;BME280;42889;51.112;13.772;2022-12-26T01:10:30;98742.84;;;10.22;nan
39197;BME280;42889;51.112;13.772;2022-12-26T01:12:57;98749.06;;;10.23;nan
39197;BME280;42889;51.112;13.772;2022-12-26T01:15:24;98743.53;;;10.33;nan
39197;BME280;42889;51.112;13.772;2022-12-26T01:17:50;98750.78;;;10.32;nan
39197;BME280;42889;51.112;13.772;2022-12-26T01:20:17;98751.59;;;10.33;nan
39197;BME280;42889;51.112;13.772;2022-12-26T01:22:44;98752.78;;;10.38;nan
39197;BME280;42889;51.112;13.772;2022-12-26T01:25:10;98748.94;;;10.41;nan
39197;BME280;42889;51.112;13.772;2022-12-26T01:27:37;98738.84;;;10.35;nan
39197;BME280;42889;51.112;13.772;2022-12-26T01:30:04;98737.16;;;10.42;nan
39197;BME280;42889;51.112;13.772;2022-12-26T01:32:31;98741.72;;;10.41;nan
39197;BME280;42889;51.112;13.772;2022-12-26T01:34:58;98734.47;;;10.42;nan
39197;BME280;42889;51.112;13.772;2022-12-26T01:37:25;98725.75;;;10.40;nan
39197;BME280;42889;51.112;13.772;2022-12-26T01:39:51;98734.97;;;10.53;nan
39197;BME280;42889;51.112;13.772;2022-12-26T01:42:21;98738.84;;;10.67;nan
39197;BME280;42889;51.112;13.772;2022-12-26T01:47:39;98731.44;;;10.53;nan
39197;BME280;42889;51.112;13.772;2022-12-26T01:50:59;98736.50;;;10.56;nan
39197;BME280;42889;51.112;13.772;2022-12-26T01:53:06;98733.31;;;10.44;nan
39197;BME280;42889;51.112;13.772;2022-12-26T01:55:35;98735.34;;;10.50;nan
39197;BME280;42889;51.112;13.772;2022-12-26T01:58:09;98735.16;;;10.44;nan
39197;BME280;42889;51.112;13.772;2022-12-26T02:00:39;98742.72;;;10.40;nan
39197;BME280;42889;51.112;13.772;2022-12-26T02:03:56;98743.72;;;10.47;nan
39197;BME280;42889;51.112;13.772;2022-12-26T02:12:24;98752.66;;;10.40;nan
39197;BME280;42889;51.112;13.772;2022-12-26T02:15:04;98751.44;;;10.42;nan
39197;BME280;42889;51.112;13.772;2022-12-26T02:17:31;98736.84;;;10.53;nan
39197;BME280;42889;51.112;13.772;2022-12-26T02:28:40;98718.34;;;10.66;nan
39197;BME280;42889;51.112;13.772;2022-12-26T02:31:18;98720.69;;;10.69;nan
39197;BME280;42889;51.112;13.772;2022-12-26T02:39:31;98724.72;;;10.65;nan
39197;BME280;42889;51.112;13.772;2022-12-26T02:48:15;98727.75;;;10.62;nan
39197;BME280;42889;51.112;13.772;2022-12-26T02:56:59;98737.81;;;10.60;nan
39197;BME280;42889;51.112;13.772;2022-12-26T03:00:10;98732.28;;;10.70;nan
39197;BME280;42889;51.112;13.772;2022-12-26T03:03:06;98730.28;;;10.55;nan
39197;BME280;42889;51.112;13.772;2022-12-26T03:05:58;98716.66;;;10.57;nan
39197;BME280;42889;51.112;13.772;2022-12-26T03:08:51;98719.00;;;10.52;nan
39197;BME280;42889;51.112;13.772;2022-12-26T03:11:40;98709.25;;;10.43;nan
39197;BME280;42889;51.112;13.772;2022-12-26T03:14:31;98712.78;;;10.27;nan
39197;BME280;42889;51.112;13.772;2022-12-26T03:17:10;98718.66;;;10.22;nan
39197;BME280;42889;51.112;13.772;2022-12-26T03:19:48;98718.50;;;10.32;nan
39197;BME280;42889;51.112;13.772;2022-12-26T03:22:33;98710.44;;;10.24;nan
39197;BME280;42889;51.112;13.772;2022-12-26T03:25:12;98715.81;;;10.24;nan
39197;BME280;42889;51.112;13.772;2022-12-26T03:28:02;98726.84;;;10.21;nan
39197;BME280;42889;51.112;13.772;2022-12-26T03:30:29;98721.69;;;10.36;nan
39197;BME280;42889;51.112;13.772;2022-12-26T03:33:17;98715.81;;;10.32;nan
39197;BME280;42889;51.112;13.772;2022-12-26T03:36:03;98713.66;;;10.27;nan
39197;BME280;42889;51.112;13.772;2022-12-26T03:38:41;98713.47;;;10.29;nan
39197;BME280;42889;51.112;13.772;2022-12-26T03:41:26;98710.94;;;10.36;nan
39197;BME280;42889;51.112;13.772;2022-12-26T03:44:31;98720.34;;;10.32;nan
39197;BME280;42889;51.112;13.772;2022-12-26T03:47:28;98724.72;;;10.49;nan
39197;BME280;42889;51.112;13.772;2022-12-26T03:50:37;98721.72;;;10.44;nan
39197;BME280;42889;51.112;13.772;2022-12-26T03:53:48;98733.13;;;10.54;nan
39197;BME280;42889;51.112;13.772;2022-12-26T03:59:37;98730.97;;;10.33;nan
39197;BME280;42889;51.112;13.772;2022-12-26T04:02:39;98740.19;;;10.47;nan
39197;BME280;42889;51.112;13.772;2022-12-26T04:05:27;98745.25;;;10.34;nan
39197;BME280;42889;51.112;13.772;2022-12-26T04:08:18;98735.00;;;10.45;nan
39197;BME280;42889;51.112;13.772;2022-12-26T04:11:09;98742.03;;;10.30;nan
39197;BME280;42889;51.112;13.772;2022-12-26T04:17:00;98737.50;;;10.31;nan
39197;BME280;42889;51.112;13.772;2022-12-26T04:22:43;98744.25;;;10.51;nan
39197;BME280;42889;51.112;13.772;2022-12-26T04:25:43;98747.59;;;10.45;nan
39197;BME280;42889;51.112;13.772;2022-12-26T04:28:30;98769.78;;;10.39;nan
39197;BME280;42889;51.112;13.772;2022-12-26T04:31:22;98768.44;;;10.43;nan
39197;BME280;42889;51.112;13.772;2022-12-26T04:34:17;98774.13;;;10.32;nan
39197;BME280;42889;51.112;13.772;2022-12-26T04:37:06;98776.66;;;10.25;nan
39197;BME280;42889;51.112;13.772;2022-12-26T04:39:54;98769.88;;;10.13;nan
39197;BME280;42889;51.112;13.772;2022-12-26T04:42:42;98766.09;;;10.48;nan
39197;BME280;42889;51.112;13.772;2022-12-26T04:45:48;98764.41;;;10.47;nan
39197;BME280;42889;51.112;13.772;2022-12-26T04:48:15;98751.28;;;10.27;nan
39197;BME280;42889;51.112;13.772;2022-12-26T04:51:01;98759.13;;;10.13;nan
39197;BME280;42889;51.112;13.772;2022-12-26T04:53:27;98768.38;;;10.18;nan
39197;BME280;42889;51.112;13.772;2022-12-26T04:55:54;98772.91;;;10.18;nan
39197;BME280;42889;51.112;13.772;2022-12-26T04:58:21;98774.91;;;10.16;nan
39197;BME280;42889;51.112;13.772;2022-12-26T05:00:49;98769.78;;;10.31;nan
39197;BME280;42889;51.112;13.772;2022-12-26T05:03:16;98777.38;;;10.51;nan
39197;BME280;42889;51.112;13.772;2022-12-26T05:06:02;98764.06;;;10.58;nan
39197;BME280;42889;51.112;13.772;2022-12-26T05:08:47;98780.56;;;10.63;nan
39197;BME280;42889;51.112;13.772;2022-12-26T05:11:35;98769.28;;;10.76;nan
39197;BME280;42889;51.112;13.772;2022-12-26T05:14:01;98767.28;;;10.78;nan
39197;BME280;42889;51.112;13.772;2022-12-26T05:16:28;98751.13;;;10.78;nan
39197;BME280;42889;51.112;13.772;2022-12-26T05:19:15;98753.97;;;10.85;nan
39197;BME280;42889;51.112;13.772;2022-12-26T05:22:03;98748.78;;;10.83;nan
39197;BME280;42889;51.112;13.772;2022-12-26T05:24:50;98766.94;;;10.89;nan
39197;BME280;42889;51.112;13.772;2022-12-26T05:27:39;98761.53;;;10.89;nan
39197;BME280;42889;51.112;13.772;2022-12-26T05:30:25;98759.00;;;10.96;nan
39197;BME280;42889;51.112;13.772;2022-12-26T05:32:51;98747.22;;;10.97;nan
39197;BME280;42889;51.112;13.772;2022-12-26T05:35:38;98744.19;;;11.00;nan
39197;BME280;42889;51.112;13.772;2022-12-26T05:38:08;98762.34;;;10.98;nan
39197;BME280;42889;51.112;13.772;2022-12-26T05:40:35;98757.47;;;11.01;nan
39197;BME280;42889;51.112;13.772;2022-12-26T05:43:02;98770.78;;;11.11;nan
39197;BME280;42889;51.112;13.772;2022-12-26T05:45:30;98765.38;;;11.11;nan
39197;BME280;42889;51.112;13.772;2022-12-26T05:47:58;98774.63;;;11.17;nan
39197;BME280;42889;51.112;13.772;2022-12-26T05:50:25;98775.28;;;11.19;nan
39197;BME280;42889;51.112;13.772;2022-12-26T05:52:57;98757.97;;;11.21;nan
39197;BME280;42889;51.112;13.772;2022-12-26T05:55:25;98754.25;;;11.14;nan
39197;BME280;42889;51.112;13.772;2022-12-26T05:57:52;98751.22;;;11.09;nan
39197;BME280;42889;51.112;13.772;2022-12-26T06:00:19;98761.16;;;11.17;nan
39197;BME280;42889;51.112;13.772;2022-12-26T06:02:45;98759.66;;;11.06;nan
39197;BME280;42889;51.112;13.772;2022-12-26T06:05:12;98763.53;;;11.03;nan
39197;BME280;42889;51.112;13.772;2022-12-26T06:07:39;98767.25;;;11.02;nan
39197;BME280;42889;51.112;13.772;2022-12-26T06:10:06;98769.09;;;11.02;nan
39197;BME280;42889;51.112;13.772;2022-12-26T06:12:33;98760.84;;;11.12;nan
39197;BME280;42889;51.112;13.772;2022-12-26T06:15:00;98768.06;;;11.11;nan
39197;BME280;42889;51.112;13.772;2022-12-26T06:17:27;98762.00;;;11.09;nan
39197;BME280;42889;51.112;13.772;2022-12-26T06:19:54;98767.38;;;11.09;nan
39197;BME280;42889;51.112;13.772;2022-12-26T06:22:20;98753.78;;;11.11;nan
39197;BME280;42889;51.112;13.772;2022-12-26T06:24:47;98747.19;;;11.21;nan
39197;BME280;42889;51.112;13.772;2022-12-26T06:27:14;98739.63;;;11.08;nan
39197;BME280;42889;51.112;13.772;2022-12-26T06:29:41;98729.19;;;11.14;nan
39197;BME280;42889;51.112;13.772;2022-12-26T06:32:07;98727.00;;;11.09;nan
39197;BME280;42889;51.112;13.772;2022-12-26T06:34:34;98744.16;;;11.08;nan
39197;BME280;42889;51.112;13.772;2022-12-26T06:37:01;98747.88;;;11.07;nan
39197;BME280;42889;51.112;13.772;2022-12-26T06:39:29;98743.19;;;11.01;nan
39197;BME280;42889;51.112;13.772;2022-12-26T06:41:56;98754.13;;;10.99;nan
39197;BME280;42889;51.112;13.772;2022-12-26T06:44:22;98770.28;;;10.99;nan
39197;BME280;42889;51.112;13.772;2022-12-26T06:46:50;98765.22;;;11.04;nan
39197;BME280;42889;51.112;13.772;2022-12-26T06:49:16;98758.69;;;10.99;nan
39197;BME280;42889;51.112;13.772;2022-12-26T06:51:43;98767.94;;;11.04;nan
39197;BME280;42889;51.112;13.772;2022-12-26T06:54:10;98787.75;;;11.03;nan
39197;BME280;42889;51.112;13.772;2022-12-26T06:56:37;98780.88;;;11.01;nan
39197;BME280;42889;51.112;13.772;2022-12-26T06:59:04;98786.59;;;10.98;nan
39197;BME280;42889;51.112;13.772;2022-12-26T07:01:33;98783.91;;;11.06;nan
39197;BME280;42889;51.112;13.772;2022-12-26T07:04:01;98802.41;;;11.01;nan
39197;BME280;42889;51.112;13.772;2022-12-26T07:06:35;98797.53;;;11.04;nan
39197;BME280;42889;51.112;13.772;2022-12-26T07:09:03;98791.66;;;11.01;nan
39197;BME280;42889;51.112;13.772;2022-12-26T07:11:33;98806.28;;;11.06;nan
39197;BME280;42889;51.112;13.772;2022-12-26T07:14:00;98808.78;;;11.08;nan
39197;BME280;42889;51.112;13.772;2022-12-26T07:16:27;98806.97;;;11.00;nan
39197;BME280;42889;51.112;13.772;2022-12-26T07:18:55;98808.81;;;11.00;nan
39197;BME280;42889;51.112;13.772;2022-12-26T07:21:24;98805.78;;;10.95;nan
39197;BME280;42889;51.112;13.772;2022-12-26T07:23:53;98820.28;;;10.94;nan
39197;BME280;42889;51.112;13.772;2022-12-26T07:26:21;98814.03;;;10.85;nan
39197;BME280;42889;51.112;13.772;2022-12-26T07:28:52;98807.28;;;10.81;nan
39197;BME280;42889;51.112;13.772;2022-12-26T07:31:19;98811.53;;;10.84;nan
39197;BME280;42889;51.112;13.772;2022-12-26T07:33:51;98810.81;;;10.81;nan
39197;BME280;42889;51.112;13.772;2022-12-26T07:36:18;98810.50;;;10.76;nan
39197;BME280;42889;51.112;13.772;2022-12-26T07:38:46;98810.19;;;10.71;nan
39197;BME280;42889;51.112;13.772;2022-12-26T07:41:13;98816.41;;;10.72;nan
39197;BME280;42889;51.112;13.772;2022-12-26T07:43:58;98818.25;;;10.71;nan
39197;BME280;42889;51.112;13.772;2022-12-26T07:46:25;98821.25;;;10.68;nan
39197;BME280;42889;51.112;13.772;2022-12-26T07:48:52;98823.28;;;10.66;nan
39197;BME280;42889;51.112;13.772;2022-12-26T07:51:20;98827.66;;;10.67;nan
39197;BME280;42889;51.112;13.772;2022-12-26T07:53:47;98828.00;;;10.72;nan
39197;BME280;42889;51.112;13.772;2022-12-26T07:56:14;98834.91;;;10.67;nan
39197;BME280;42889;51.112;13.772;2022-12-26T07:58:41;98831.19;;;10.68;nan
39197;BME280;42889;51.112;13.772;2022-12-26T08:01:08;98835.03;;;10.65;nan
39197;BME280;42889;51.112;13.772;2022-12-26T08:03:35;98839.94;;;10.70;nan
39197;BME280;42889;51.112;13.772;2022-12-26T08:06:02;98834.53;;;10.70;nan
39197;BME280;42889;51.112;13.772;2022-12-26T08:08:29;98837.56;;;10.75;nan
39197;BME280;42889;51.112;13.772;2022-12-26T08:11:00;98830.03;;;10.78;nan
39197;BME280;42889;51.112;13.772;2022-12-26T08:13:27;98820.06;;;10.87;nan
39197;BME280;42889;51.112;13.772;2022-12-26T08:15:55;98815.38;;;10.89;nan
39197;BME280;42889;51.112;13.772;2022-12-26T08:18:22;98819.56;;;10.92;nan
39197;BME280;42889;51.112;13.772;2022-12-26T08:20:49;98835.06;;;10.98;nan
39197;BME280;42889;51.112;13.772;2022-12-26T08:23:16;98846.34;;;11.01;nan
39197;BME280;42889;51.112;13.772;2022-12-26T08:25:43;98844.63;;;11.08;nan
39197;BME280;42889;51.112;13.772;2022-12-26T08:28:09;98846.84;;;11.13;nan
39197;BME280;42889;51.112;13.772;2022-12-26T08:30:38;98846.00;;;11.13;nan
39197;BME280;42889;51.112;13.772;2022-12-26T08:33:08;98844.78;;;11.15;nan
39197;BME280;42889;51.112;13.772;2022-12-26T08:35:36;98826.63;;;11.17;nan
39197;BME280;42889;51.112;13.772;2022-12-26T08:38:04;98829.84;;;11.21;nan
39197;BME280;42889;51.112;13.772;2022-12-26T08:40:31;98830.34;;;11.16;nan
39197;BME280;42889;51.112;13.772;2022-12-26T08:43:08;98842.63;;;11.27;nan
39197;BME280;42889;51.112;13.772;2022-12-26T08:46:03;98817.00;;;11.31;nan
39197;BME280;42889;51.112;13.772;2022-12-26T08:48:31;98820.88;;;11.37;nan
39197;BME280;42889;51.112;13.772;2022-12-26T08:51:02;98829.47;;;11.40;nan
39197;BME280;42889;51.112;13.772;2022-12-26T08:53:31;98831.78;;;11.51;nan
39197;BME280;42889;51.112;13.772;2022-12-26T08:55:59;98830.25;;;11.57;nan
39197;BME280;42889;51.112;13.772;2022-12-26T08:58:27;98830.91;;;11.59;nan
39197;BME280;42889;51.112;13.772;2022-12-26T09:00:54;98843.88;;;11.64;nan
39197;BME280;42889;51.112;13.772;2022-12-26T09:03:21;98839.66;;;11.69;nan
39197;BME280;42889;51.112;13.772;2022-12-26T09:05:48;98837.97;;;11.68;nan
39197;BME280;42889;51.112;13.772;2022-12-26T09:08:15;98834.63;;;11.66;nan
39197;BME280;42889;51.112;13.772;2022-12-26T09:10:41;98813.53;;;11.70;nan
39197;BME280;42889;51.112;13.772;2022-12-26T09:13:08;98818.41;;;11.74;nan
39197;BME280;42889;51.112;13.772;2022-12-26T09:15:35;98830.19;;;11.73;nan
39197;BME280;42889;51.112;13.772;2022-12-26T09:18:02;98838.09;;;11.75;nan
39197;BME280;42889;51.112;13.772;2022-12-26T09:20:28;98848.22;;;11.73;nan
39197;BME280;42889;51.112;13.772;2022-12-26T09:22:55;98830.22;;;11.81;nan
39197;BME280;42889;51.112;13.772;2022-12-26T09:25:24;98838.44;;;11.80;nan
39197;BME280;42889;51.112;13.772;2022-12-26T09:27:51;98834.41;;;11.84;nan
39197;BME280;42889;51.112;13.772;2022-12-26T09:30:24;98859.50;;;11.84;nan
39197;BME280;42889;51.112;13.772;2022-12-26T09:32:51;98863.38;;;11.90;nan
39197;BME280;42889;51.112;13.772;2022-12-26T09:35:18;98859.00;;;11.89;nan
39197;BME280;42889;51.112;13.772;2022-12-26T09:37:45;98845.84;;;11.94;nan
39197;BME280;42889;51.112;13.772;2022-12-26T09:40:21;98839.25;;;11.97;nan
39197;BME280;42889;51.112;13.772;2022-12-26T09:42:58;98843.47;;;11.99;nan
39197;BME280;42889;51.112;13.772;2022-12-26T09:45:42;98854.06;;;12.01;nan
39197;BME280;42889;51.112;13.772;2022-12-26T09:48:17;98860.47;;;12.00;nan
39197;BME280;42889;51.112;13.772;2022-12-26T09:50:49;98846.47;;;12.04;nan
39197;BME280;42889;51.112;13.772;2022-12-26T09:53:24;98853.53;;;12.05;nan
39197;BME280;42889;51.112;13.772;2022-12-26T09:55:56;98853.53;;;12.05;nan
39197;BME280;42889;51.112;13.772;2022-12-26T09:58:43;98857.25;;;12.04;nan
39197;BME280;42889;51.112;13.772;2022-12-26T10:01:15;98848.47;;;12.02;nan
39197;BME280;42889;51.112;13.772;2022-12-26T10:03:48;98836.84;;;12.02;nan
39197;BME280;42889;51.112;13.772;2022-12-26T10:06:18;98829.59;;;12.02;nan
39197;BME280;42889;51.112;13.772;2022-12-26T10:11:52;98820.88;;;12.00;nan
39197;BME280;42889;51.112;13.772;2022-12-26T10:14:51;98821.88;;;11.99;nan
39197;BME280;42889;51.112;13.772;2022-12-26T10:25:21;98837.34;;;11.50;nan
39197;BME280;42889;51.112;13.772;2022-12-26T10:27:50;98848.31;;;11.48;nan
39197;BME280;42889;51.112;13.772;2022-12-26T10:30:21;98844.09;;;11.46;nan
39197;BME280;42889;51.112;13.772;2022-12-26T10:32:58;98850.47;;;11.53;nan
39197;BME280;42889;51.112;13.772;2022-12-26T10:35:38;98833.28;;;11.62;nan
39197;BME280;42889;51.112;13.772;2022-12-26T10:40:53;98830.72;;;11.77;nan
39197;BME280;42889;51.112;13.772;2022-12-26T10:43:32;98822.97;;;11.82;nan
39197;BME280;42889;51.112;13.772;2022-12-26T10:49:11;98820.03;;;11.92;nan
39197;BME280;42889;51.112;13.772;2022-12-26T10:51:39;98810.78;;;11.94;nan
39197;BME280;42889;51.112;13.772;2022-12-26T10:54:14;98807.69;;;12.05;nan
39197;BME280;42889;51.112;13.772;2022-12-26T10:56:47;98805.78;;;12.14;nan
39197;BME280;42889;51.112;13.772;2022-12-26T10:59:43;98826.00;;;12.18;nan
39197;BME280;42889;51.112;13.772;2022-12-26T11:02:19;98818.22;;;12.23;nan
39197;BME280;42889;51.112;13.772;2022-12-26T11:07:51;98820.50;;;12.34;nan
39197;BME280;42889;51.112;13.772;2022-12-26T11:10:21;98816.22;;;12.48;nan
39197;BME280;42889;51.112;13.772;2022-12-26T11:12:59;98816.75;;;12.44;nan
39197;BME280;42889;51.112;13.772;2022-12-26T11:20:35;98804.72;;;12.23;nan
39197;BME280;42889;51.112;13.772;2022-12-26T11:25:50;98816.88;;;12.19;nan
39197;BME280;42889;51.112;13.772;2022-12-26T11:28:27;98826.19;;;12.08;nan
39197;BME280;42889;51.112;13.772;2022-12-26T11:30:54;98829.44;;;12.04;nan
39197;BME280;42889;51.112;13.772;2022-12-26T11:33:32;98819.50;;;12.04;nan
39197;BME280;42889;51.112;13.772;2022-12-26T11:36:18;98820.34;;;12.05;nan
39197;BME280;42889;51.112;13.772;2022-12-26T11:38:53;98818.28;;;12.07;nan
39197;BME280;42889;51.112;13.772;2022-12-26T11:44:16;98809.75;;;12.03;nan
39197;BME280;42889;51.112;13.772;2022-12-26T11:46:57;98813.91;;;12.06;nan
39197;BME280;42889;51.112;13.772;2022-12-26T11:51:57;98788.44;;;12.08;nan
39197;BME280;42889;51.112;13.772;2022-12-26T11:54:47;98780.00;;;12.11;nan
39197;BME280;42889;51.112;13.772;2022-12-26T11:57:18;98784.56;;;12.11;nan
39197;BME280;42889;51.112;13.772;2022-12-26T11:59:46;98786.88;;;12.14;nan
39197;BME280;42889;51.112;13.772;2022-12-26T12:02:20;98800.88;;;12.18;nan
39197;BME280;42889;51.112;13.772;2022-12-26T12:04:49;98795.66;;;12.16;nan
39197;BME280;42889;51.112;13.772;2022-12-26T12:07:33;98806.28;;;12.18;nan
39197;BME280;42889;51.112;13.772;2022-12-26T12:18:54;98796.09;;;11.97;nan
39197;BME280;42889;51.112;13.772;2022-12-26T12:24:26;98784.53;;;11.88;nan
39197;BME280;42889;51.112;13.772;2022-12-26T12:27:03;98797.50;;;11.84;nan
39197;BME280;42889;51.112;13.772;2022-12-26T12:29:57;98793.31;;;11.82;nan
39197;BME280;42889;51.112;13.772;2022-12-26T12:38:22;98779.63;;;11.75;nan
39197;BME280;42889;51.112;13.772;2022-12-26T12:41:12;98769.88;;;11.74;nan
39197;BME280;42889;51.112;13.772;2022-12-26T12:46:48;98776.81;;;11.69;nan
39197;BME280;42889;51.112;13.772;2022-12-26T13:00:43;98786.81;;;11.60;nan
39197;BME280;42889;51.112;13.772;2022-12-26T13:03:34;98832.47;;;11.45;nan
39197;BME280;42889;51.112;13.772;2022-12-26T13:06:19;98836.75;;;11.07;nan
39197;BME280;42889;51.112;13.772;2022-12-26T13:08:50;98892.03;;;10.10;nan
39197;BME280;42889;51.112;13.772;2022-12-26T13:11:41;98904.88;;;9.56;nan
39197;BME280;42889;51.112;13.772;2022-12-26T13:14:26;98893.41;;;9.28;nan
39197;BME280;42889;51.112;13.772;2022-12-26T13:20:05;98905.72;;;8.95;nan
39197;BME280;42889;51.112;13.772;2022-12-26T13:22:44;98914.56;;;8.87;nan
39197;BME280;42889;51.112;13.772;2022-12-26T13:25:35;98911.19;;;8.85;nan
39197;BME280;42889;51.112;13.772;2022-12-26T13:28:07;98909.81;;;8.81;nan
39197;BME280;42889;51.112;13.772;2022-12-26T13:30:37;98917.25;;;8.69;nan
39197;BME280;42889;51.112;13.772;2022-12-26T13:33:04;98899.69;;;8.75;nan
39197;BME280;42889;51.112;13.772;2022-12-26T13:35:57;98894.09;;;8.68;nan
39197;BME280;42889;51.112;13.772;2022-12-26T13:39:29;98901.81;;;8.71;nan
39197;BME280;42889;51.112;13.772;2022-12-26T13:41:30;98888.84;;;8.67;nan
39197;BME280;42889;51.112;13.772;2022-12-26T13:55:26;98876.44;;;8.66;nan
39197;BME280;42889;51.112;13.772;2022-12-26T13:57:40;98867.28;;;8.68;nan
39197;BME280;42889;51.112;13.772;2022-12-26T14:02:54;98875.16;;;8.70;nan
39197;BME280;42889;51.112;13.772;2022-12-26T14:06:06;98883.03;;;8.71;nan
39197;BME280;42889;51.112;13.772;2022-12-26T14:13:55;98876.16;;;8.69;nan
39197;BME280;42889;51.112;13.772;2022-12-26T14:19:36;98871.09;;;8.66;nan
39197;BME280;42889;51.112;13.772;2022-12-26T14:22:09;98875.44;;;8.67;nan
39197;BME280;42889;51.112;13.772;2022-12-26T14:28:04;98869.94;;;8.68;nan
39197;BME280;42889;51.112;13.772;2022-12-26T14:30:51;98879.13;;;8.66;nan
39197;BME280;42889;51.112;13.772;2022-12-26T14:34:10;98875.28;;;8.51;nan
39197;BME280;42889;51.112;13.772;2022-12-26T14:39:37;98875.22;;;8.60;nan
39197;BME280;42889;51.112;13.772;2022-12-26T14:44:57;98882.88;;;8.55;nan
39197;BME280;42889;51.112;13.772;2022-12-26T14:47:46;98888.09;;;8.57;nan
39197;BME280;42889;51.112;13.772;2022-12-26T15:09:30;98903.34;;;8.56;nan
39197;BME280;42889;51.112;13.772;2022-12-26T15:21:12;98910.91;;;8.43;nan
39197;BME280;42889;51.112;13.772;2022-12-26T15:27:10;98905.56;;;8.43;nan
39197;BME280;42889;51.112;13.772;2022-12-26T15:38:26;98922.09;;;8.29;nan
39197;BME280;42889;51.112;13.772;2022-12-26T15:41:15;98926.50;;;8.30;nan
39197;BME280;42889;51.112;13.772;2022-12-26T15:46:35;98924.97;;;8.17;nan
39197;BME280;42889;51.112;13.772;2022-12-26T15:57:28;98913.41;;;8.17;nan
39197;BME280;42889;51.112;13.772;2022-12-26T16:03:21;98914.53;;;8.24;nan
39197;BME280;42889;51.112;13.772;2022-12-26T16:08:53;98917.28;;;8.42;nan
39197;BME280;42889;51.112;13.772;2022-12-26T16:11:41;98925.16;;;8.43;nan
39197;BME280;42889;51.112;13.772;2022-12-26T16:14:24;98912.44;;;8.45;nan
39197;BME280;42889;51.112;13.772;2022-12-26T16:16:51;98903.81;;;8.52;nan
39197;BME280;42889;51.112;13.772;2022-12-26T16:19:22;98907.84;;;8.56;nan
39197;BME280;42889;51.112;13.772;2022-12-26T16:21:51;98912.31;;;8.47;nan
39197;BME280;42889;51.112;13.772;2022-12-26T16:24:39;98916.03;;;8.36;nan
39197;BME280;42889;51.112;13.772;2022-12-26T16:27:08;98915.59;;;8.41;nan
39197;BME280;42889;51.112;13.772;2022-12-26T16:29:49;98920.41;;;8.37;nan
39197;BME280;42889;51.112;13.772;2022-12-26T16:32:20;98920.13;;;8.31;nan
39197;BME280;42889;51.112;13.772;2022-12-26T16:34:48;98928.88;;;8.33;nan
39197;BME280;42889;51.112;13.772;2022-12-26T16:37:22;98928.13;;;8.40;nan
39197;BME280;42889;51.112;13.772;2022-12-26T16:40:06;98910.09;;;8.33;nan
39197;BME280;42889;51.112;13.772;2022-12-26T16:42:33;98909.94;;;8.34;nan
39197;BME280;42889;51.112;13.772;2022-12-26T16:45:00;98914.44;;;8.43;nan
39197;BME280;42889;51.112;13.772;2022-12-26T16:47:29;98913.88;;;8.40;nan
39197;BME280;42889;51.112;13.772;2022-12-26T16:49:57;98915.78;;;8.30;nan
39197;BME280;42889;51.112;13.772;2022-12-26T16:52:37;98911.38;;;8.38;nan
39197;BME280;42889;51.112;13.772;2022-12-26T16:55:33;98923.81;;;8.30;nan
39197;BME280;42889;51.112;13.772;2022-12-26T17:01:09;98929.91;;;8.22;nan
39197;BME280;42889;51.112;13.772;2022-12-26T17:03:57;98939.59;;;8.33;nan
39197;BME280;42889;51.112;13.772;2022-12-26T17:06:27;98929.88;;;8.32;nan
39197;BME280;42889;51.112;13.772;2022-12-26T17:08:55;98935.06;;;8.33;nan
39197;BME280;42889;51.112;13.772;2022-12-26T17:11:29;98932.09;;;8.46;nan
39197;BME280;42889;51.112;13.772;2022-12-26T17:13:57;98925.28;;;8.52;nan
39197;BME280;42889;51.112;13.772;2022-12-26T17:16:28;98930.75;;;8.50;nan
39197;BME280;42889;51.112;13.772;2022-12-26T17:19:08;98924.78;;;8.56;nan